sensor_id;sensor_type;location;lat;lon;timestamp;pressure;altitude;pressure_sealevel;temperature;humidity
71917;BME280;59793;46.506;6.674;2022-09-29T00:01:38;95627.97;;;12.54;85.36
71917;BME280;59793;46.506;6.674;2022-09-29T00:04:03;95631.44;;;12.43;86.19
71917;BME280;59793;46.506;6.674;2022-09-29T00:06:29;95633.31;;;12.43;86.81
71917;BME280;59793;46.506;6.674;2022-09-29T00:08:54;95620.53;;;12.38;86.22
71917;BME280;59793;46.506;6.674;2022-09-29T00:11:19;95633.28;;;12.50;86.51
71917;BME280;59793;46.506;6.674;2022-09-29T00:13:46;95629.94;;;12.42;87.12
71917;BME280;59793;46.506;6.674;2022-09-29T00:16:12;95632.28;;;12.33;87.66
71917;BME280;59793;46.506;6.674;2022-09-29T00:18:38;95621.31;;;12.31;87.86
71917;BME280;59793;46.506;6.674;2022-09-29T00:21:14;95626.53;;;12.42;87.47
71917;BME280;59793;46.506;6.674;2022-09-29T00:23:40;95602.47;;;12.29;87.56
71917;BME280;59793;46.506;6.674;2022-09-29T00:28:37;95595.31;;;12.30;87.65
71917;BME280;59793;46.506;6.674;2022-09-29T00:31:04;95611.06;;;12.44;87.80
71917;BME280;59793;46.506;6.674;2022-09-29T00:33:30;95603.56;;;12.35;87.62
71917;BME280;59793;46.506;6.674;2022-09-29T00:36:04;95613.69;;;12.48;87.71
71917;BME280;59793;46.506;6.674;2022-09-29T00:38:30;95602.41;;;12.40;88.55
71917;BME280;59793;46.506;6.674;2022-09-29T00:40:56;95619.75;;;12.41;88.75
71917;BME280;59793;46.506;6.674;2022-09-29T00:43:47;95605.44;;;12.38;88.55
71917;BME280;59793;46.506;6.674;2022-09-29T00:46:11;95602.31;;;12.51;88.39
71917;BME280;59793;46.506;6.674;2022-09-29T00:48:37;95599.31;;;12.52;88.47
71917;BME280;59793;46.506;6.674;2022-09-29T00:51:03;95591.78;;;12.47;88.43
71917;BME280;59793;46.506;6.674;2022-09-29T00:53:28;95593.69;;;12.47;88.44
71917;BME280;59793;46.506;6.674;2022-09-29T00:56:14;95605.34;;;12.53;88.87
71917;BME280;59793;46.506;6.674;2022-09-29T00:58:46;95607.25;;;12.49;89.01
71917;BME280;59793;46.506;6.674;2022-09-29T01:01:19;95608.41;;;12.48;89.21
71917;BME280;59793;46.506;6.674;2022-09-29T01:03:45;95609.19;;;12.44;89.47
71917;BME280;59793;46.506;6.674;2022-09-29T01:06:34;95608.69;;;12.57;88.93
71917;BME280;59793;46.506;6.674;2022-09-29T01:09:02;95606.06;;;12.57;89.46
71917;BME280;59793;46.506;6.674;2022-09-29T01:11:29;95607.53;;;12.61;89.02
71917;BME280;59793;46.506;6.674;2022-09-29T01:13:56;95586.88;;;12.49;89.13
71917;BME280;59793;46.506;6.674;2022-09-29T01:16:28;95584.56;;;12.58;88.68
71917;BME280;59793;46.506;6.674;2022-09-29T01:18:53;95599.84;;;12.81;88.28
71917;BME280;59793;46.506;6.674;2022-09-29T01:29:56;95592.28;;;12.83;89.16
71917;BME280;59793;46.506;6.674;2022-09-29T01:35:36;95584.75;;;12.78;88.73
71917;BME280;59793;46.506;6.674;2022-09-29T01:38:34;95580.19;;;12.82;88.64
71917;BME280;59793;46.506;6.674;2022-09-29T01:41:22;95583.25;;;12.77;88.02
71917;BME280;59793;46.506;6.674;2022-09-29T01:44:05;95580.22;;;12.79;88.23
71917;BME280;59793;46.506;6.674;2022-09-29T01:46:37;95571.19;;;12.76;88.22
71917;BME280;59793;46.506;6.674;2022-09-29T01:49:05;95573.00;;;12.86;87.13
71917;BME280;59793;46.506;6.674;2022-09-29T01:51:43;95566.63;;;12.80;88.27
71917;BME280;59793;46.506;6.674;2022-09-29T01:54:15;95577.91;;;12.84;86.87
71917;BME280;59793;46.506;6.674;2022-09-29T01:57:06;95581.34;;;12.81;86.01
71917;BME280;59793;46.506;6.674;2022-09-29T02:02:08;95584.38;;;12.80;85.31
71917;BME280;59793;46.506;6.674;2022-09-29T02:04:40;95596.47;;;12.77;83.63
71917;BME280;59793;46.506;6.674;2022-09-29T02:07:12;95587.13;;;12.69;84.03
71917;BME280;59793;46.506;6.674;2022-09-29T02:09:42;95583.66;;;12.76;83.72
71917;BME280;59793;46.506;6.674;2022-09-29T02:12:12;95585.22;;;12.70;84.12
71917;BME280;59793;46.506;6.674;2022-09-29T02:14:42;95595.03;;;12.69;84.29
71917;BME280;59793;46.506;6.674;2022-09-29T02:17:32;95590.13;;;12.67;85.28
71917;BME280;59793;46.506;6.674;2022-09-29T02:20:00;95590.16;;;12.64;84.69
71917;BME280;59793;46.506;6.674;2022-09-29T02:22:26;95588.63;;;12.66;84.85
71917;BME280;59793;46.506;6.674;2022-09-29T02:24:54;95586.03;;;12.63;84.18
71917;BME280;59793;46.506;6.674;2022-09-29T02:27:24;95573.63;;;12.53;84.75
71917;BME280;59793;46.506;6.674;2022-09-29T02:29:49;95574.31;;;12.64;84.21
71917;BME280;59793;46.506;6.674;2022-09-29T02:32:15;95566.13;;;12.51;82.83
71917;BME280;59793;46.506;6.674;2022-09-29T02:34:43;95572.88;;;12.56;81.96
71917;BME280;59793;46.506;6.674;2022-09-29T02:48:25;95578.91;;;12.56;79.58
71917;BME280;59793;46.506;6.674;2022-09-29T02:51:25;95578.16;;;12.56;80.67
71917;BME280;59793;46.506;6.674;2022-09-29T02:54:11;95564.63;;;12.47;79.67
71917;BME280;59793;46.506;6.674;2022-09-29T02:57:38;95567.59;;;12.56;80.27
71917;BME280;59793;46.506;6.674;2022-09-29T03:00:09;95566.75;;;12.66;81.68
71917;BME280;59793;46.506;6.674;2022-09-29T03:02:37;95557.72;;;12.60;82.97
71917;BME280;59793;46.506;6.674;2022-09-29T03:05:03;95571.94;;;12.77;83.27
71917;BME280;59793;46.506;6.674;2022-09-29T03:07:29;95570.09;;;12.74;83.38
71917;BME280;59793;46.506;6.674;2022-09-29T03:09:54;95568.97;;;12.71;83.60
71917;BME280;59793;46.506;6.674;2022-09-29T03:12:20;95575.69;;;12.83;83.36
71917;BME280;59793;46.506;6.674;2022-09-29T03:14:45;95580.19;;;12.82;81.92
71917;BME280;59793;46.506;6.674;2022-09-29T03:17:11;95576.41;;;12.87;81.53
71917;BME280;59793;46.506;6.674;2022-09-29T03:19:36;95573.13;;;12.72;82.11
71917;BME280;59793;46.506;6.674;2022-09-29T03:22:01;95562.25;;;12.63;81.98
71917;BME280;59793;46.506;6.674;2022-09-29T03:24:28;95574.66;;;12.70;80.93
71917;BME280;59793;46.506;6.674;2022-09-29T03:26:53;95575.81;;;12.61;79.34
71917;BME280;59793;46.506;6.674;2022-09-29T03:29:18;95570.63;;;12.51;80.08
71917;BME280;59793;46.506;6.674;2022-09-29T03:31:44;95553.28;;;12.50;79.52
71917;BME280;59793;46.506;6.674;2022-09-29T03:34:09;95570.94;;;12.60;79.37
71917;BME280;59793;46.506;6.674;2022-09-29T03:36:34;95549.53;;;12.43;80.25
71917;BME280;59793;46.506;6.674;2022-09-29T03:39:00;95569.06;;;12.57;81.34
71917;BME280;59793;46.506;6.674;2022-09-29T03:41:25;95573.28;;;12.51;84.15
71917;BME280;59793;46.506;6.674;2022-09-29T03:43:50;95524.88;;;12.16;85.26
71917;BME280;59793;46.506;6.674;2022-09-29T03:46:16;95568.72;;;12.55;85.57
71917;BME280;59793;46.506;6.674;2022-09-29T03:48:41;95564.50;;;12.61;85.56
71917;BME280;59793;46.506;6.674;2022-09-29T03:51:07;95546.50;;;12.49;86.20
71917;BME280;59793;46.506;6.674;2022-09-29T03:53:33;95555.13;;;12.56;86.04
71917;BME280;59793;46.506;6.674;2022-09-29T03:55:59;95564.28;;;12.44;86.51
71917;BME280;59793;46.506;6.674;2022-09-29T03:58:25;95528.56;;;12.22;87.10
71917;BME280;59793;46.506;6.674;2022-09-29T04:00:50;95533.47;;;12.27;87.53
71917;BME280;59793;46.506;6.674;2022-09-29T04:03:16;95542.50;;;12.30;86.79
71917;BME280;59793;46.506;6.674;2022-09-29T04:05:43;95556.47;;;12.30;87.40
71917;BME280;59793;46.506;6.674;2022-09-29T04:08:08;95546.25;;;12.32;86.87
71917;BME280;59793;46.506;6.674;2022-09-29T04:10:38;95559.00;;;12.44;87.04
71917;BME280;59793;46.506;6.674;2022-09-29T04:13:04;95555.63;;;12.40;87.04
71917;BME280;59793;46.506;6.674;2022-09-29T04:15:30;95557.88;;;12.42;87.37
71917;BME280;59793;46.506;6.674;2022-09-29T04:17:55;95556.31;;;12.52;87.35
71917;BME280;59793;46.506;6.674;2022-09-29T04:20:21;95542.78;;;12.42;86.94
71917;BME280;59793;46.506;6.674;2022-09-29T04:22:46;95545.34;;;12.50;86.88
71917;BME280;59793;46.506;6.674;2022-09-29T04:25:12;95526.31;;;12.24;86.48
71917;BME280;59793;46.506;6.674;2022-09-29T04:27:37;95544.75;;;12.31;86.72
71917;BME280;59793;46.506;6.674;2022-09-29T04:30:03;95533.84;;;12.22;87.45
71917;BME280;59793;46.506;6.674;2022-09-29T04:32:29;95553.38;;;12.35;87.11
71917;BME280;59793;46.506;6.674;2022-09-29T04:34:54;95548.59;;;12.19;87.09
71917;BME280;59793;46.506;6.674;2022-09-29T04:37:19;95535.47;;;12.09;88.18
71917;BME280;59793;46.506;6.674;2022-09-29T04:39:45;95527.91;;;12.11;87.87
71917;BME280;59793;46.506;6.674;2022-09-29T04:42:10;95537.28;;;12.19;87.46
71917;BME280;59793;46.506;6.674;2022-09-29T04:44:35;95518.13;;;12.08;87.49
71917;BME280;59793;46.506;6.674;2022-09-29T04:47:01;95545.19;;;12.19;87.77
71917;BME280;59793;46.506;6.674;2022-09-29T04:49:26;95536.97;;;12.10;88.17
71917;BME280;59793;46.506;6.674;2022-09-29T04:51:52;95556.53;;;12.19;88.46
71917;BME280;59793;46.506;6.674;2022-09-29T04:54:17;95553.47;;;12.25;88.63
71917;BME280;59793;46.506;6.674;2022-09-29T04:56:42;95568.88;;;12.37;88.38
71917;BME280;59793;46.506;6.674;2022-09-29T04:59:09;95550.09;;;12.20;88.25
71917;BME280;59793;46.506;6.674;2022-09-29T05:01:34;95567.66;;;12.45;87.68
71917;BME280;59793;46.506;6.674;2022-09-29T05:04:00;95555.72;;;12.26;88.22
71917;BME280;59793;46.506;6.674;2022-09-29T05:06:26;95536.91;;;12.20;88.78
71917;BME280;59793;46.506;6.674;2022-09-29T05:08:51;95546.56;;;12.41;88.88
71917;BME280;59793;46.506;6.674;2022-09-29T05:11:16;95555.72;;;12.26;89.71
71917;BME280;59793;46.506;6.674;2022-09-29T05:13:42;95554.63;;;12.20;89.62
71917;BME280;59793;46.506;6.674;2022-09-29T05:16:07;95579.78;;;12.39;89.46
71917;BME280;59793;46.506;6.674;2022-09-29T05:18:32;95571.53;;;12.33;89.59
71917;BME280;59793;46.506;6.674;2022-09-29T05:21:05;95586.56;;;12.36;89.68
71917;BME280;59793;46.506;6.674;2022-09-29T05:23:31;95573.84;;;12.24;90.41
71917;BME280;59793;46.506;6.674;2022-09-29T05:26:02;95586.94;;;12.38;89.15
71917;BME280;59793;46.506;6.674;2022-09-29T05:28:28;95572.28;;;12.34;87.05
71917;BME280;59793;46.506;6.674;2022-09-29T05:30:53;95584.31;;;12.38;86.30
71917;BME280;59793;46.506;6.674;2022-09-29T05:33:18;95580.19;;;12.37;88.12
71917;BME280;59793;46.506;6.674;2022-09-29T05:35:44;95567.78;;;12.27;89.59
71917;BME280;59793;46.506;6.674;2022-09-29T05:38:09;95562.09;;;12.29;89.22
71917;BME280;59793;46.506;6.674;2022-09-29T05:40:35;95589.59;;;12.38;87.08
71917;BME280;59793;46.506;6.674;2022-09-29T05:43:01;95564.13;;;12.07;88.42
71917;BME280;59793;46.506;6.674;2022-09-29T05:45:26;95578.06;;;12.11;88.08
71917;BME280;59793;46.506;6.674;2022-09-29T05:47:52;95595.78;;;12.14;88.14
71917;BME280;59793;46.506;6.674;2022-09-29T05:50:19;95600.66;;;12.15;87.99
71917;BME280;59793;46.506;6.674;2022-09-29T05:52:44;95565.72;;;11.90;87.32
71917;BME280;59793;46.506;6.674;2022-09-29T05:55:13;95580.34;;;12.09;88.05
71917;BME280;59793;46.506;6.674;2022-09-29T05:57:39;95584.44;;;12.20;88.52
71917;BME280;59793;46.506;6.674;2022-09-29T06:00:05;95582.22;;;12.05;88.49
71917;BME280;59793;46.506;6.674;2022-09-29T06:02:31;95605.91;;;12.19;88.93
71917;BME280;59793;46.506;6.674;2022-09-29T06:04:56;95564.19;;;12.00;88.79
71917;BME280;59793;46.506;6.674;2022-09-29T06:07:22;95601.09;;;12.07;89.90
71917;BME280;59793;46.506;6.674;2022-09-29T06:09:47;95610.91;;;12.06;90.32
71917;BME280;59793;46.506;6.674;2022-09-29T06:12:12;95610.19;;;11.99;91.03
71917;BME280;59793;46.506;6.674;2022-09-29T06:14:38;95596.66;;;11.86;91.68
71917;BME280;59793;46.506;6.674;2022-09-29T06:17:03;95604.94;;;11.91;91.74
71917;BME280;59793;46.506;6.674;2022-09-29T06:19:28;95615.81;;;12.04;91.67
71917;BME280;59793;46.506;6.674;2022-09-29T06:21:54;95607.56;;;11.99;91.30
71917;BME280;59793;46.506;6.674;2022-09-29T06:24:19;95608.59;;;12.12;91.20
71917;BME280;59793;46.506;6.674;2022-09-29T06:26:44;95600.34;;;12.06;90.06
71917;BME280;59793;46.506;6.674;2022-09-29T06:29:10;95616.16;;;12.10;90.74
71917;BME280;59793;46.506;6.674;2022-09-29T06:31:35;95604.16;;;12.02;90.87
71917;BME280;59793;46.506;6.674;2022-09-29T06:34:03;95624.34;;;12.33;87.66
71917;BME280;59793;46.506;6.674;2022-09-29T06:36:31;95615.25;;;12.38;86.13
71917;BME280;59793;46.506;6.674;2022-09-29T06:39:17;95621.66;;;12.40;83.52
71917;BME280;59793;46.506;6.674;2022-09-29T06:41:43;95617.44;;;12.47;83.99
71917;BME280;59793;46.506;6.674;2022-09-29T06:44:12;95633.94;;;12.61;84.58
71917;BME280;59793;46.506;6.674;2022-09-29T06:46:38;95626.53;;;12.46;84.48
71917;BME280;59793;46.506;6.674;2022-09-29T06:49:04;95617.56;;;12.29;83.68
71917;BME280;59793;46.506;6.674;2022-09-29T06:51:30;95651.41;;;12.48;83.70
71917;BME280;59793;46.506;6.674;2022-09-29T06:53:56;95626.56;;;12.38;84.36
71917;BME280;59793;46.506;6.674;2022-09-29T06:56:21;95654.81;;;12.49;84.75
71917;BME280;59793;46.506;6.674;2022-09-29T06:58:46;95635.19;;;12.46;82.95
71917;BME280;59793;46.506;6.674;2022-09-29T07:01:12;95628.78;;;12.43;83.97
71917;BME280;59793;46.506;6.674;2022-09-29T07:03:38;95648.38;;;12.50;83.97
71917;BME280;59793;46.506;6.674;2022-09-29T07:06:05;95648.34;;;12.53;82.17
71917;BME280;59793;46.506;6.674;2022-09-29T07:08:31;95639.34;;;12.43;83.24
71917;BME280;59793;46.506;6.674;2022-09-29T07:10:56;95639.78;;;12.38;83.60
71917;BME280;59793;46.506;6.674;2022-09-29T07:13:23;95653.28;;;12.51;84.78
71917;BME280;59793;46.506;6.674;2022-09-29T07:15:49;95649.59;;;12.34;83.23
71917;BME280;59793;46.506;6.674;2022-09-29T07:18:14;95662.41;;;12.39;85.21
71917;BME280;59793;46.506;6.674;2022-09-29T07:20:39;95643.72;;;12.09;85.75
71917;BME280;59793;46.506;6.674;2022-09-29T07:23:06;95676.06;;;12.24;86.68
71917;BME280;59793;46.506;6.674;2022-09-29T07:25:34;95681.00;;;12.18;87.42
71917;BME280;59793;46.506;6.674;2022-09-29T07:28:00;95687.75;;;12.19;86.97
71917;BME280;59793;46.506;6.674;2022-09-29T07:30:26;95668.94;;;12.13;87.67
71917;BME280;59793;46.506;6.674;2022-09-29T07:32:52;95694.56;;;12.20;87.31
71917;BME280;59793;46.506;6.674;2022-09-29T07:35:20;95698.34;;;12.12;85.13
71917;BME280;59793;46.506;6.674;2022-09-29T07:37:54;95695.31;;;12.24;82.44
71917;BME280;59793;46.506;6.674;2022-09-29T07:40:21;95716.03;;;12.26;81.60
71917;BME280;59793;46.506;6.674;2022-09-29T07:42:47;95694.59;;;12.13;79.99
71917;BME280;59793;46.506;6.674;2022-09-29T07:45:15;95687.78;;;12.12;80.74
71917;BME280;59793;46.506;6.674;2022-09-29T07:47:40;95709.28;;;12.14;80.14
71917;BME280;59793;46.506;6.674;2022-09-29T07:50:06;95733.00;;;12.28;80.08
71917;BME280;59793;46.506;6.674;2022-09-29T07:52:31;95727.69;;;12.35;77.78
71917;BME280;59793;46.506;6.674;2022-09-29T07:54:56;95751.09;;;12.33;73.58
71917;BME280;59793;46.506;6.674;2022-09-29T07:57:21;95731.47;;;12.34;74.27
71917;BME280;59793;46.506;6.674;2022-09-29T07:59:47;95734.47;;;12.40;76.45
71917;BME280;59793;46.506;6.674;2022-09-29T08:02:12;95739.78;;;12.33;77.20
71917;BME280;59793;46.506;6.674;2022-09-29T08:04:38;95754.13;;;12.28;77.68
71917;BME280;59793;46.506;6.674;2022-09-29T08:07:03;95722.56;;;11.96;77.76
71917;BME280;59793;46.506;6.674;2022-09-29T08:09:28;95755.63;;;12.26;77.28
71917;BME280;59793;46.506;6.674;2022-09-29T08:11:54;95757.19;;;12.16;77.72
71917;BME280;59793;46.506;6.674;2022-09-29T08:14:19;95751.97;;;12.02;78.19
71917;BME280;59793;46.506;6.674;2022-09-29T08:16:44;95756.88;;;11.92;77.78
71917;BME280;59793;46.506;6.674;2022-09-29T08:19:10;95753.81;;;12.01;76.97
71917;BME280;59793;46.506;6.674;2022-09-29T08:21:35;95760.22;;;12.11;76.58
71917;BME280;59793;46.506;6.674;2022-09-29T08:24:02;95762.47;;;12.19;76.69
71917;BME280;59793;46.506;6.674;2022-09-29T08:26:30;95766.22;;;12.22;77.65
71917;BME280;59793;46.506;6.674;2022-09-29T08:28:56;95750.75;;;12.28;77.29
71917;BME280;59793;46.506;6.674;2022-09-29T08:31:21;95750.72;;;12.31;76.36
71917;BME280;59793;46.506;6.674;2022-09-29T08:33:48;95760.06;;;12.54;76.07
71917;BME280;59793;46.506;6.674;2022-09-29T08:36:18;95760.44;;;12.56;75.75
71917;BME280;59793;46.506;6.674;2022-09-29T08:38:46;95757.34;;;12.68;73.45
71917;BME280;59793;46.506;6.674;2022-09-29T08:44:04;95760.22;;;12.99;72.87
71917;BME280;59793;46.506;6.674;2022-09-29T08:46:39;95747.75;;;12.96;72.41
71917;BME280;59793;46.506;6.674;2022-09-29T08:49:12;95746.06;;;13.27;71.44
71917;BME280;59793;46.506;6.674;2022-09-29T08:51:50;95739.31;;;13.15;71.06
71917;BME280;59793;46.506;6.674;2022-09-29T08:54:34;95749.06;;;13.32;69.02
71917;BME280;59793;46.506;6.674;2022-09-29T08:57:01;95765.41;;;13.13;71.31
71917;BME280;59793;46.506;6.674;2022-09-29T08:59:27;95741.03;;;12.84;71.07
71917;BME280;59793;46.506;6.674;2022-09-29T09:04:44;95764.06;;;12.87;72.36
71917;BME280;59793;46.506;6.674;2022-09-29T09:07:58;95768.56;;;12.90;73.18
71917;BME280;59793;46.506;6.674;2022-09-29T09:15:53;95751.97;;;12.82;74.18
71917;BME280;59793;46.506;6.674;2022-09-29T09:18:45;95758.72;;;12.98;74.10
71917;BME280;59793;46.506;6.674;2022-09-29T09:21:24;95763.47;;;13.17;71.59
71917;BME280;59793;46.506;6.674;2022-09-29T09:23:57;95767.22;;;13.23;73.66
71917;BME280;59793;46.506;6.674;2022-09-29T09:26:38;95747.28;;;13.11;71.21
71917;BME280;59793;46.506;6.674;2022-09-29T09:29:36;95761.84;;;13.37;72.52
71917;BME280;59793;46.506;6.674;2022-09-29T09:32:08;95760.63;;;13.49;72.54
71917;BME280;59793;46.506;6.674;2022-09-29T09:37:41;95759.63;;;13.32;71.95
71917;BME280;59793;46.506;6.674;2022-09-29T09:40:21;95762.16;;;13.47;72.28
71917;BME280;59793;46.506;6.674;2022-09-29T09:42:59;95767.91;;;13.34;72.31
71917;BME280;59793;46.506;6.674;2022-09-29T09:45:38;95759.34;;;13.16;71.80
71917;BME280;59793;46.506;6.674;2022-09-29T09:48:11;95765.06;;;13.11;72.15
71917;BME280;59793;46.506;6.674;2022-09-29T09:50:39;95773.75;;;13.08;72.14
71917;BME280;59793;46.506;6.674;2022-09-29T09:53:31;95772.94;;;13.18;72.05
71917;BME280;59793;46.506;6.674;2022-09-29T09:56:12;95771.38;;;13.28;72.28
71917;BME280;59793;46.506;6.674;2022-09-29T10:01:29;95764.19;;;13.28;73.64
71917;BME280;59793;46.506;6.674;2022-09-29T10:03:56;95767.19;;;13.30;73.13
71917;BME280;59793;46.506;6.674;2022-09-29T10:06:23;95748.28;;;13.32;72.99
71917;BME280;59793;46.506;6.674;2022-09-29T10:08:49;95759.59;;;13.39;71.73
71917;BME280;59793;46.506;6.674;2022-09-29T10:13:42;95779.50;;;13.51;70.76
71917;BME280;59793;46.506;6.674;2022-09-29T10:16:13;95730.63;;;13.18;71.54
71917;BME280;59793;46.506;6.674;2022-09-29T10:18:46;95759.03;;;13.59;71.07
71917;BME280;59793;46.506;6.674;2022-09-29T10:21:42;95770.03;;;13.57;70.54
71917;BME280;59793;46.506;6.674;2022-09-29T10:24:28;95760.94;;;13.58;70.87
71917;BME280;59793;46.506;6.674;2022-09-29T10:26:59;95767.75;;;13.56;72.10
71917;BME280;59793;46.506;6.674;2022-09-29T10:29:42;95770.78;;;13.58;70.79
71917;BME280;59793;46.506;6.674;2022-09-29T10:32:26;95768.53;;;13.53;70.90
71917;BME280;59793;46.506;6.674;2022-09-29T10:35:39;95773.75;;;13.60;72.54
71917;BME280;59793;46.506;6.674;2022-09-29T10:38:17;95754.19;;;13.50;71.67
71917;BME280;59793;46.506;6.674;2022-09-29T10:40:59;95771.81;;;13.68;72.38
71917;BME280;59793;46.506;6.674;2022-09-29T10:43:47;95773.22;;;13.79;72.05
71917;BME280;59793;46.506;6.674;2022-09-29T10:46:46;95772.03;;;13.84;70.36
71917;BME280;59793;46.506;6.674;2022-09-29T10:49:13;95769.09;;;13.78;70.98
71917;BME280;59793;46.506;6.674;2022-09-29T10:51:41;95764.47;;;13.86;71.72
71917;BME280;59793;46.506;6.674;2022-09-29T10:54:14;95766.75;;;13.84;71.78
71917;BME280;59793;46.506;6.674;2022-09-29T10:56:46;95769.78;;;13.82;69.71
71917;BME280;59793;46.506;6.674;2022-09-29T10:59:13;95762.94;;;13.44;71.09
71917;BME280;59793;46.506;6.674;2022-09-29T11:01:58;95759.19;;;13.41;70.92
71917;BME280;59793;46.506;6.674;2022-09-29T11:04:33;95764.00;;;13.50;72.88
71917;BME280;59793;46.506;6.674;2022-09-29T11:07:10;95757.22;;;13.49;74.83
71917;BME280;59793;46.506;6.674;2022-09-29T11:09:42;95777.44;;;13.73;72.52
71917;BME280;59793;46.506;6.674;2022-09-29T11:12:25;95776.72;;;13.69;70.93
71917;BME280;59793;46.506;6.674;2022-09-29T11:14:51;95779.66;;;13.78;72.41
71917;BME280;59793;46.506;6.674;2022-09-29T11:19:50;95783.34;;;13.88;70.63
71917;BME280;59793;46.506;6.674;2022-09-29T11:30:18;95776.22;;;13.36;71.38
71917;BME280;59793;46.506;6.674;2022-09-29T11:35:44;95792.72;;;13.55;68.55
71917;BME280;59793;46.506;6.674;2022-09-29T11:38:20;95794.72;;;13.40;70.25
71917;BME280;59793;46.506;6.674;2022-09-29T11:46:12;95786.44;;;13.34;70.87
71917;BME280;59793;46.506;6.674;2022-09-29T11:53:58;95785.75;;;13.27;72.75
71917;BME280;59793;46.506;6.674;2022-09-29T12:10:26;95791.22;;;13.54;72.90
71917;BME280;59793;46.506;6.674;2022-09-29T12:13:22;95792.16;;;13.29;75.35
71917;BME280;59793;46.506;6.674;2022-09-29T12:16:01;95799.28;;;13.36;76.07
71917;BME280;59793;46.506;6.674;2022-09-29T12:18:37;95788.78;;;13.25;74.26
71917;BME280;59793;46.506;6.674;2022-09-29T12:21:06;95787.59;;;13.30;75.08
71917;BME280;59793;46.506;6.674;2022-09-29T12:23:34;95777.06;;;13.26;75.86
71917;BME280;59793;46.506;6.674;2022-09-29T12:26:04;95785.59;;;13.45;75.78
71917;BME280;59793;46.506;6.674;2022-09-29T12:28:45;95774.72;;;13.32;74.26
71917;BME280;59793;46.506;6.674;2022-09-29T12:31:27;95784.47;;;13.46;73.98
71917;BME280;59793;46.506;6.674;2022-09-29T12:36:47;95789.34;;;13.51;72.63
71917;BME280;59793;46.506;6.674;2022-09-29T12:48:06;95779.28;;;13.31;74.99
71917;BME280;59793;46.506;6.674;2022-09-29T12:50:45;95791.72;;;13.34;75.96
71917;BME280;59793;46.506;6.674;2022-09-29T12:58:10;95804.44;;;12.91;76.87
71917;BME280;59793;46.506;6.674;2022-09-29T13:00:41;95780.66;;;12.87;77.27
71917;BME280;59793;46.506;6.674;2022-09-29T13:03:49;95796.91;;;12.82;77.80
71917;BME280;59793;46.506;6.674;2022-09-29T13:07:27;95792.81;;;12.74;77.93
71917;BME280;59793;46.506;6.674;2022-09-29T13:12:08;95798.00;;;12.96;77.69
71917;BME280;59793;46.506;6.674;2022-09-29T13:14:51;95795.25;;;13.10;78.01
71917;BME280;59793;46.506;6.674;2022-09-29T13:20:36;95797.66;;;12.90;78.04
71917;BME280;59793;46.506;6.674;2022-09-29T13:23:19;95798.00;;;12.96;77.36
71917;BME280;59793;46.506;6.674;2022-09-29T13:26:12;95801.41;;;12.92;78.06
71917;BME280;59793;46.506;6.674;2022-09-29T13:29:04;95799.16;;;12.87;77.35
71917;BME280;59793;46.506;6.674;2022-09-29T13:31:37;95792.75;;;12.88;76.78
71917;BME280;59793;46.506;6.674;2022-09-29T13:34:04;95790.47;;;12.90;73.63
71917;BME280;59793;46.506;6.674;2022-09-29T13:36:35;95797.63;;;12.94;74.61
71917;BME280;59793;46.506;6.674;2022-09-29T13:39:05;95790.09;;;12.88;73.93
71917;BME280;59793;46.506;6.674;2022-09-29T13:41:36;95793.91;;;12.84;73.76
71917;BME280;59793;46.506;6.674;2022-09-29T13:46:42;95796.84;;;12.97;73.81
71917;BME280;59793;46.506;6.674;2022-09-29T13:51:55;95802.78;;;13.15;74.50
71917;BME280;59793;46.506;6.674;2022-09-29T13:59:42;95809.97;;;13.14;71.08
71917;BME280;59793;46.506;6.674;2022-09-29T14:04:56;95808.44;;;13.17;71.55
71917;BME280;59793;46.506;6.674;2022-09-29T14:07:41;95821.66;;;13.17;71.67
71917;BME280;59793;46.506;6.674;2022-09-29T14:18:42;95821.50;;;13.46;70.23
71917;BME280;59793;46.506;6.674;2022-09-29T14:21:14;95821.41;;;13.56;69.76
71917;BME280;59793;46.506;6.674;2022-09-29T14:23:58;95812.63;;;13.70;69.28
71917;BME280;59793;46.506;6.674;2022-09-29T14:29:23;95826.63;;;14.12;65.90
71917;BME280;59793;46.506;6.674;2022-09-29T14:31:54;95829.59;;;14.55;65.14
71917;BME280;59793;46.506;6.674;2022-09-29T14:34:24;95826.84;;;14.97;63.90
71917;BME280;59793;46.506;6.674;2022-09-29T14:36:53;95813.75;;;15.13;60.66
71917;BME280;59793;46.506;6.674;2022-09-29T14:39:21;95821.63;;;15.44;61.21
71917;BME280;59793;46.506;6.674;2022-09-29T14:41:48;95829.03;;;15.05;62.15
71917;BME280;59793;46.506;6.674;2022-09-29T14:44:29;95820.84;;;14.93;62.58
71917;BME280;59793;46.506;6.674;2022-09-29T14:53:39;95833.81;;;14.49;62.70
71917;BME280;59793;46.506;6.674;2022-09-29T14:56:28;95839.59;;;14.41;64.74
71917;BME280;59793;46.506;6.674;2022-09-29T15:04:37;95839.28;;;14.35;62.38
71917;BME280;59793;46.506;6.674;2022-09-29T15:07:03;95840.63;;;14.54;62.16
71917;BME280;59793;46.506;6.674;2022-09-29T15:09:34;95836.78;;;14.58;62.28
71917;BME280;59793;46.506;6.674;2022-09-29T15:12:00;95841.53;;;14.74;61.52
71917;BME280;59793;46.506;6.674;2022-09-29T15:14:30;95840.03;;;14.70;61.18
71917;BME280;59793;46.506;6.674;2022-09-29T15:20:40;95843.38;;;14.40;62.86
71917;BME280;59793;46.506;6.674;2022-09-29T15:25:42;95850.91;;;14.07;63.93
71917;BME280;59793;46.506;6.674;2022-09-29T15:28:25;95841.28;;;14.20;63.92
71917;BME280;59793;46.506;6.674;2022-09-29T15:30:52;95846.59;;;14.20;63.45
71917;BME280;59793;46.506;6.674;2022-09-29T15:35:52;95811.44;;;14.16;62.99
71917;BME280;59793;46.506;6.674;2022-09-29T15:40:53;95845.34;;;14.70;62.44
71917;BME280;59793;46.506;6.674;2022-09-29T15:43:24;95797.22;;;14.37;64.86
71917;BME280;59793;46.506;6.674;2022-09-29T15:45:54;95850.56;;;14.77;65.23
71917;BME280;59793;46.506;6.674;2022-09-29T15:48:22;95835.28;;;14.57;63.60
71917;BME280;59793;46.506;6.674;2022-09-29T15:50:47;95829.66;;;14.52;64.61
71917;BME280;59793;46.506;6.674;2022-09-29T15:53:13;95845.63;;;14.41;66.04
71917;BME280;59793;46.506;6.674;2022-09-29T15:55:39;95859.69;;;14.34;66.68